sensor_id;sensor_type;location;lat;lon;timestamp;pressure;altitude;pressure_sealevel;temperature;humidity
9822;BME280;4950;46.042;14.472;2024-01-30T00:01:51;100084.69;;;0.51;79.13
9822;BME280;4950;46.042;14.472;2024-01-30T00:04:18;100087.81;;;0.59;78.46
9822;BME280;4950;46.042;14.472;2024-01-30T00:06:46;100085.78;;;0.68;77.38
9822;BME280;4950;46.042;14.472;2024-01-30T00:09:13;100085.78;;;0.68;77.07
9822;BME280;4950;46.042;14.472;2024-01-30T00:11:40;100083.47;;;0.62;77.12
9822;BME280;4950;46.042;14.472;2024-01-30T00:14:07;100084.53;;;0.56;77.14
9822;BME280;4950;46.042;14.472;2024-01-30T00:16:33;100082.97;;;0.52;78.08
9822;BME280;4950;46.042;14.472;2024-01-30T00:19:00;100083.88;;;0.51;78.11
9822;BME280;4950;46.042;14.472;2024-01-30T00:21:28;100088.16;;;0.49;78.04
9822;BME280;4950;46.042;14.472;2024-01-30T00:23:56;100077.56;;;0.59;77.38
9822;BME280;4950;46.042;14.472;2024-01-30T00:26:22;100081.88;;;0.59;76.46
9822;BME280;4950;46.042;14.472;2024-01-30T00:28:49;100089.69;;;0.54;76.64
9822;BME280;4950;46.042;14.472;2024-01-30T00:31:16;100087.97;;;0.55;77.44
9822;BME280;4950;46.042;14.472;2024-01-30T00:33:43;100097.47;;;0.51;77.53
9822;BME280;4950;46.042;14.472;2024-01-30T00:36:10;100093.69;;;0.38;77.74
9822;BME280;4950;46.042;14.472;2024-01-30T00:38:37;100095.25;;;0.42;77.71
9822;BME280;4950;46.042;14.472;2024-01-30T00:41:05;100091.31;;;0.33;78.72
9822;BME280;4950;46.042;14.472;2024-01-30T00:43:32;100092.84;;;0.37;77.32
9822;BME280;4950;46.042;14.472;2024-01-30T00:45:58;100091.13;;;0.38;78.19
9822;BME280;4950;46.042;14.472;2024-01-30T00:48:25;100093.97;;;0.54;77.87
9822;BME280;4950;46.042;14.472;2024-01-30T00:50:52;100093.28;;;0.49;76.67
9822;BME280;4950;46.042;14.472;2024-01-30T00:53:18;100091.81;;;0.43;77.70
9822;BME280;4950;46.042;14.472;2024-01-30T00:55:46;100092.94;;;0.34;77.89
9822;BME280;4950;46.042;14.472;2024-01-30T00:58:14;100094.72;;;0.32;77.78
9822;BME280;4950;46.042;14.472;2024-01-30T01:00:40;100089.00;;;0.26;78.06
9822;BME280;4950;46.042;14.472;2024-01-30T01:03:07;100096.69;;;0.26;78.62
9822;BME280;4950;46.042;14.472;2024-01-30T01:05:34;100095.25;;;0.17;77.75
9822;BME280;4950;46.042;14.472;2024-01-30T01:08:01;100094.13;;;0.01;78.97
9822;BME280;4950;46.042;14.472;2024-01-30T01:10:27;100099.13;;;0.04;78.34
9822;BME280;4950;46.042;14.472;2024-01-30T01:12:54;100088.81;;;0.07;78.38
9822;BME280;4950;46.042;14.472;2024-01-30T01:15:22;100091.97;;;0.13;78.03
9822;BME280;4950;46.042;14.472;2024-01-30T01:17:49;100087.50;;;0.20;78.06
9822;BME280;4950;46.042;14.472;2024-01-30T01:20:16;100088.25;;;0.24;77.79
9822;BME280;4950;46.042;14.472;2024-01-30T01:22:42;100080.19;;;0.09;77.47
9822;BME280;4950;46.042;14.472;2024-01-30T01:25:09;100083.00;;;0.02;78.39
9822;BME280;4950;46.042;14.472;2024-01-30T01:27:36;100077.44;;;0.15;76.80
9822;BME280;4950;46.042;14.472;2024-01-30T01:30:08;100079.16;;;0.15;77.39
9822;BME280;4950;46.042;14.472;2024-01-30T01:32:37;100079.22;;;0.13;75.72
9822;BME280;4950;46.042;14.472;2024-01-30T01:35:04;100083.78;;;0.04;77.18
9822;BME280;4950;46.042;14.472;2024-01-30T01:37:31;100080.53;;;-0.25;77.89
9822;BME280;4950;46.042;14.472;2024-01-30T01:39:58;100084.53;;;-0.18;78.27
9822;BME280;4950;46.042;14.472;2024-01-30T01:42:25;100079.22;;;-0.12;79.38
9822;BME280;4950;46.042;14.472;2024-01-30T01:44:52;100075.44;;;0.00;77.51
9822;BME280;4950;46.042;14.472;2024-01-30T01:47:18;100074.97;;;-0.11;77.53
9822;BME280;4950;46.042;14.472;2024-01-30T01:49:47;100068.91;;;-0.09;77.47
9822;BME280;4950;46.042;14.472;2024-01-30T01:52:14;100079.38;;;-0.16;77.13
9822;BME280;4950;46.042;14.472;2024-01-30T01:54:41;100074.09;;;-0.12;78.03
9822;BME280;4950;46.042;14.472;2024-01-30T01:57:07;100073.53;;;-0.20;77.61
9822;BME280;4950;46.042;14.472;2024-01-30T01:59:34;100082.13;;;-0.23;78.45
9822;BME280;4950;46.042;14.472;2024-01-30T02:02:02;100077.19;;;-0.27;78.76
9822;BME280;4950;46.042;14.472;2024-01-30T02:04:30;100069.41;;;-0.24;78.12
9822;BME280;4950;46.042;14.472;2024-01-30T02:06:58;100069.06;;;-0.13;77.29
9822;BME280;4950;46.042;14.472;2024-01-30T02:09:25;100070.41;;;-0.28;77.93
9822;BME280;4950;46.042;14.472;2024-01-30T02:11:51;100063.94;;;-0.38;78.20
9822;BME280;4950;46.042;14.472;2024-01-30T02:14:18;100067.13;;;-0.32;78.49
9822;BME280;4950;46.042;14.472;2024-01-30T02:16:45;100058.03;;;-0.39;78.49
9822;BME280;4950;46.042;14.472;2024-01-30T02:19:12;100059.38;;;-0.29;78.69
9822;BME280;4950;46.042;14.472;2024-01-30T02:21:40;100060.19;;;-0.28;77.50
9822;BME280;4950;46.042;14.472;2024-01-30T02:24:07;100064.09;;;-0.43;78.47
9822;BME280;4950;46.042;14.472;2024-01-30T02:26:33;100063.84;;;-0.35;78.44
9822;BME280;4950;46.042;14.472;2024-01-30T02:29:00;100063.44;;;-0.23;77.76
9822;BME280;4950;46.042;14.472;2024-01-30T02:31:27;100064.44;;;-0.27;76.98
9822;BME280;4950;46.042;14.472;2024-01-30T02:33:53;100070.31;;;-0.25;76.75
9822;BME280;4950;46.042;14.472;2024-01-30T02:36:20;100075.03;;;-0.40;77.34
9822;BME280;4950;46.042;14.472;2024-01-30T02:38:48;100072.78;;;-0.49;79.45
9822;BME280;4950;46.042;14.472;2024-01-30T02:41:15;100078.47;;;-0.41;78.24
9822;BME280;4950;46.042;14.472;2024-01-30T02:43:41;100073.13;;;-0.33;77.38
9822;BME280;4950;46.042;14.472;2024-01-30T02:46:08;100075.59;;;-0.31;77.02
9822;BME280;4950;46.042;14.472;2024-01-30T02:48:35;100069.06;;;-0.38;76.84
9822;BME280;4950;46.042;14.472;2024-01-30T02:51:03;100069.72;;;-0.33;76.36
9822;BME280;4950;46.042;14.472;2024-01-30T02:53:30;100077.53;;;-0.38;76.88
9822;BME280;4950;46.042;14.472;2024-01-30T02:55:58;100065.22;;;-0.52;76.39
9822;BME280;4950;46.042;14.472;2024-01-30T02:58:25;100071.34;;;-0.57;77.11
9822;BME280;4950;46.042;14.472;2024-01-30T03:00:52;100079.78;;;-0.55;77.65
9822;BME280;4950;46.042;14.472;2024-01-30T03:03:19;100072.97;;;-0.55;76.77
9822;BME280;4950;46.042;14.472;2024-01-30T03:05:45;100066.72;;;-0.45;76.64
9822;BME280;4950;46.042;14.472;2024-01-30T03:08:12;100062.47;;;-0.46;76.85
9822;BME280;4950;46.042;14.472;2024-01-30T03:10:39;100060.88;;;-0.48;76.26
9822;BME280;4950;46.042;14.472;2024-01-30T03:13:07;100057.56;;;-0.52;76.22
9822;BME280;4950;46.042;14.472;2024-01-30T03:15:33;100057.22;;;-0.68;77.87
9822;BME280;4950;46.042;14.472;2024-01-30T03:18:00;100045.81;;;-0.56;77.27
9822;BME280;4950;46.042;14.472;2024-01-30T03:20:27;100051.97;;;-0.63;77.43
9822;BME280;4950;46.042;14.472;2024-01-30T03:22:54;100059.97;;;-0.74;77.55
9822;BME280;4950;46.042;14.472;2024-01-30T03:25:21;100056.19;;;-0.89;78.81
9822;BME280;4950;46.042;14.472;2024-01-30T03:27:48;100047.25;;;-0.74;78.34
9822;BME280;4950;46.042;14.472;2024-01-30T03:30:16;100044.44;;;-0.66;77.09
9822;BME280;4950;46.042;14.472;2024-01-30T03:32:42;100048.06;;;-0.73;77.24
9822;BME280;4950;46.042;14.472;2024-01-30T03:35:09;100041.97;;;-0.69;77.96
9822;BME280;4950;46.042;14.472;2024-01-30T03:37:36;100044.63;;;-0.72;78.10
9822;BME280;4950;46.042;14.472;2024-01-30T03:40:03;100043.78;;;-0.73;77.26
9822;BME280;4950;46.042;14.472;2024-01-30T03:42:30;100043.53;;;-0.65;77.11
9822;BME280;4950;46.042;14.472;2024-01-30T03:44:57;100047.16;;;-0.72;75.82
9822;BME280;4950;46.042;14.472;2024-01-30T03:47:25;100049.81;;;-0.75;76.84
9822;BME280;4950;46.042;14.472;2024-01-30T03:49:52;100047.13;;;-0.71;76.62
9822;BME280;4950;46.042;14.472;2024-01-30T03:52:19;100053.19;;;-0.75;77.34
9822;BME280;4950;46.042;14.472;2024-01-30T03:54:45;100050.56;;;-0.72;76.92
9822;BME280;4950;46.042;14.472;2024-01-30T03:57:12;100049.81;;;-0.75;77.53
9822;BME280;4950;46.042;14.472;2024-01-30T03:59:41;100051.59;;;-0.77;77.50
9822;BME280;4950;46.042;14.472;2024-01-30T04:02:09;100049.78;;;-0.74;77.46
9822;BME280;4950;46.042;14.472;2024-01-30T04:04:37;100052.47;;;-0.78;77.32
9822;BME280;4950;46.042;14.472;2024-01-30T04:07:04;100049.97;;;-0.80;77.62
9822;BME280;4950;46.042;14.472;2024-01-30T04:09:31;100048.94;;;-0.74;76.95
9822;BME280;4950;46.042;14.472;2024-01-30T04:11:58;100043.13;;;-0.78;76.30
9822;BME280;4950;46.042;14.472;2024-01-30T04:14:24;100047.50;;;-0.83;76.73
9822;BME280;4950;46.042;14.472;2024-01-30T04:16:51;100042.50;;;-1.13;77.82
9822;BME280;4950;46.042;14.472;2024-01-30T04:19:18;100044.94;;;-1.10;78.00
9822;BME280;4950;46.042;14.472;2024-01-30T04:21:46;100051.69;;;-1.09;78.53
9822;BME280;4950;46.042;14.472;2024-01-30T04:24:13;100046.72;;;-1.13;77.50
9822;BME280;4950;46.042;14.472;2024-01-30T04:26:42;100047.88;;;-1.24;78.75
9822;BME280;4950;46.042;14.472;2024-01-30T04:29:09;100041.13;;;-1.25;79.14
9822;BME280;4950;46.042;14.472;2024-01-30T04:31:36;100047.47;;;-1.10;77.96
9822;BME280;4950;46.042;14.472;2024-01-30T04:34:02;100040.63;;;-1.08;77.82
9822;BME280;4950;46.042;14.472;2024-01-30T04:36:29;100039.59;;;-1.02;77.18
9822;BME280;4950;46.042;14.472;2024-01-30T04:38:57;100044.25;;;-1.15;77.29
9822;BME280;4950;46.042;14.472;2024-01-30T04:41:24;100044.28;;;-1.16;77.74
9822;BME280;4950;46.042;14.472;2024-01-30T04:43:51;100048.63;;;-1.20;78.04
9822;BME280;4950;46.042;14.472;2024-01-30T04:46:18;100042.19;;;-1.32;78.33
9822;BME280;4950;46.042;14.472;2024-01-30T04:48:44;100048.81;;;-1.26;78.04
9822;BME280;4950;46.042;14.472;2024-01-30T04:51:11;100053.88;;;-1.25;77.41
9822;BME280;4950;46.042;14.472;2024-01-30T04:53:38;100054.13;;;-1.34;76.56
9822;BME280;4950;46.042;14.472;2024-01-30T04:56:07;100060.97;;;-1.34;77.48
9822;BME280;4950;46.042;14.472;2024-01-30T04:58:33;100057.44;;;-1.30;77.91
9822;BME280;4950;46.042;14.472;2024-01-30T05:01:00;100061.41;;;-1.22;76.88
9822;BME280;4950;46.042;14.472;2024-01-30T05:03:27;100058.78;;;-1.18;75.94
9822;BME280;4950;46.042;14.472;2024-01-30T05:05:54;100071.00;;;-1.30;76.43
9822;BME280;4950;46.042;14.472;2024-01-30T05:08:20;100069.09;;;-1.23;76.30
9822;BME280;4950;46.042;14.472;2024-01-30T05:10:47;100073.50;;;-1.28;76.78
9822;BME280;4950;46.042;14.472;2024-01-30T05:13:15;100077.34;;;-1.45;77.56
9822;BME280;4950;46.042;14.472;2024-01-30T05:15:42;100078.47;;;-1.53;78.29
9822;BME280;4950;46.042;14.472;2024-01-30T05:18:08;100081.00;;;-1.53;78.07
9822;BME280;4950;46.042;14.472;2024-01-30T05:20:35;100074.09;;;-1.80;79.09
9822;BME280;4950;46.042;14.472;2024-01-30T05:23:02;100076.59;;;-1.78;79.13
9822;BME280;4950;46.042;14.472;2024-01-30T05:25:28;100074.41;;;-1.92;79.73
9822;BME280;4950;46.042;14.472;2024-01-30T05:27:55;100070.00;;;-1.85;79.92
9822;BME280;4950;46.042;14.472;2024-01-30T05:30:23;100072.59;;;-1.87;79.88
9822;BME280;4950;46.042;14.472;2024-01-30T05:32:50;100084.63;;;-1.93;80.67
9822;BME280;4950;46.042;14.472;2024-01-30T05:35:18;100085.53;;;-1.96;80.59
9822;BME280;4950;46.042;14.472;2024-01-30T05:37:47;100085.50;;;-1.94;80.57
9822;BME280;4950;46.042;14.472;2024-01-30T05:40:14;100086.03;;;-1.82;80.58
9822;BME280;4950;46.042;14.472;2024-01-30T05:42:41;100091.84;;;-1.78;80.75
9822;BME280;4950;46.042;14.472;2024-01-30T05:45:08;100089.50;;;-1.86;81.52
9822;BME280;4950;46.042;14.472;2024-01-30T05:47:36;100089.25;;;-1.75;82.38
9822;BME280;4950;46.042;14.472;2024-01-30T05:50:03;100083.16;;;-1.69;80.99
9822;BME280;4950;46.042;14.472;2024-01-30T05:52:30;100085.72;;;-1.71;81.07
9822;BME280;4950;46.042;14.472;2024-01-30T05:54:57;100087.72;;;-1.82;81.81
9822;BME280;4950;46.042;14.472;2024-01-30T05:57:24;100090.38;;;-1.85;80.77
9822;BME280;4950;46.042;14.472;2024-01-30T05:59:51;100091.16;;;-1.83;80.91
9822;BME280;4950;46.042;14.472;2024-01-30T06:02:17;100088.28;;;-1.71;81.40
9822;BME280;4950;46.042;14.472;2024-01-30T06:04:45;100085.56;;;-1.65;81.10
9822;BME280;4950;46.042;14.472;2024-01-30T06:07:15;100091.69;;;-1.72;80.81
9822;BME280;4950;46.042;14.472;2024-01-30T06:09:42;100088.47;;;-1.79;80.62
9822;BME280;4950;46.042;14.472;2024-01-30T06:12:09;100092.81;;;-1.82;80.86
9822;BME280;4950;46.042;14.472;2024-01-30T06:14:37;100098.63;;;-1.77;80.52
9822;BME280;4950;46.042;14.472;2024-01-30T06:17:04;100089.09;;;-1.70;80.74
9822;BME280;4950;46.042;14.472;2024-01-30T06:19:31;100086.19;;;-1.88;81.46
9822;BME280;4950;46.042;14.472;2024-01-30T06:22:23;100088.97;;;-1.97;82.03
9822;BME280;4950;46.042;14.472;2024-01-30T06:24:50;100094.81;;;-1.93;82.29
9822;BME280;4950;46.042;14.472;2024-01-30T06:27:17;100090.56;;;-1.93;81.21
9822;BME280;4950;46.042;14.472;2024-01-30T06:29:44;100099.22;;;-2.00;82.14
9822;BME280;4950;46.042;14.472;2024-01-30T06:32:10;100100.22;;;-2.06;82.56
9822;BME280;4950;46.042;14.472;2024-01-30T06:34:37;100099.44;;;-2.09;83.09
9822;BME280;4950;46.042;14.472;2024-01-30T06:37:05;100097.69;;;-2.07;82.96
9822;BME280;4950;46.042;14.472;2024-01-30T06:39:33;100101.97;;;-2.08;82.11
9822;BME280;4950;46.042;14.472;2024-01-30T06:42:00;100107.94;;;-2.09;82.88
9822;BME280;4950;46.042;14.472;2024-01-30T06:44:26;100103.47;;;-1.99;82.58
9822;BME280;4950;46.042;14.472;2024-01-30T06:46:53;100105.84;;;-1.93;82.78
9822;BME280;4950;46.042;14.472;2024-01-30T06:49:20;100108.44;;;-1.96;81.78
9822;BME280;4950;46.042;14.472;2024-01-30T06:51:47;100119.53;;;-1.97;82.43
9822;BME280;4950;46.042;14.472;2024-01-30T06:54:14;100117.88;;;-2.00;82.46
9822;BME280;4950;46.042;14.472;2024-01-30T06:56:42;100111.88;;;-1.97;82.27
9822;BME280;4950;46.042;14.472;2024-01-30T06:59:12;100118.81;;;-2.04;82.18
9822;BME280;4950;46.042;14.472;2024-01-30T07:01:39;100122.19;;;-2.03;82.94
9822;BME280;4950;46.042;14.472;2024-01-30T07:04:05;100121.16;;;-1.96;82.90
9822;BME280;4950;46.042;14.472;2024-01-30T07:06:32;100124.63;;;-1.99;82.22
9822;BME280;4950;46.042;14.472;2024-01-30T07:08:59;100117.66;;;-1.92;82.47
9822;BME280;4950;46.042;14.472;2024-01-30T07:11:26;100125.03;;;-1.81;81.44
9822;BME280;4950;46.042;14.472;2024-01-30T07:13:55;100124.16;;;-1.80;81.38
9822;BME280;4950;46.042;14.472;2024-01-30T07:16:22;100124.13;;;-1.79;81.25
9822;BME280;4950;46.042;14.472;2024-01-30T07:18:48;100128.44;;;-1.82;81.44
9822;BME280;4950;46.042;14.472;2024-01-30T07:21:15;100121.81;;;-1.88;82.02
9822;BME280;4950;46.042;14.472;2024-01-30T07:23:42;100114.22;;;-2.22;82.10
9822;BME280;4950;46.042;14.472;2024-01-30T07:26:09;100120.72;;;-2.12;83.36
9822;BME280;4950;46.042;14.472;2024-01-30T07:28:36;100123.09;;;-2.04;83.59
9822;BME280;4950;46.042;14.472;2024-01-30T07:31:04;100125.50;;;-2.00;83.22
9822;BME280;4950;46.042;14.472;2024-01-30T07:33:31;100117.03;;;-2.00;83.02
9822;BME280;4950;46.042;14.472;2024-01-30T07:35:58;100118.72;;;-1.99;82.71
9822;BME280;4950;46.042;14.472;2024-01-30T07:38:25;100121.19;;;-1.98;82.92
9822;BME280;4950;46.042;14.472;2024-01-30T07:40:52;100126.97;;;-1.89;82.87
9822;BME280;4950;46.042;14.472;2024-01-30T07:43:18;100124.31;;;-1.86;83.70
9822;BME280;4950;46.042;14.472;2024-01-30T07:45:46;100120.94;;;-1.87;84.16
9822;BME280;4950;46.042;14.472;2024-01-30T07:48:14;100124.13;;;-1.79;83.62
9822;BME280;4950;46.042;14.472;2024-01-30T07:50:41;100128.19;;;-1.71;83.32
9822;BME280;4950;46.042;14.472;2024-01-30T07:53:16;100121.91;;;-1.58;82.12
9822;BME280;4950;46.042;14.472;2024-01-30T07:55:43;100115.19;;;-1.62;83.29
9822;BME280;4950;46.042;14.472;2024-01-30T07:58:12;100115.94;;;-1.59;82.98
9822;BME280;4950;46.042;14.472;2024-01-30T08:00:39;100120.34;;;-1.64;83.03
9822;BME280;4950;46.042;14.472;2024-01-30T08:03:05;100120.38;;;-1.65;83.06
9822;BME280;4950;46.042;14.472;2024-01-30T08:05:32;100118.59;;;-1.62;82.88
9822;BME280;4950;46.042;14.472;2024-01-30T08:07:59;100119.56;;;-1.66;82.82
9822;BME280;4950;46.042;14.472;2024-01-30T08:10:27;100114.16;;;-1.55;84.49
9822;BME280;4950;46.042;14.472;2024-01-30T08:12:53;100114.88;;;-1.50;85.09
9822;BME280;4950;46.042;14.472;2024-01-30T08:15:20;100109.78;;;-1.50;86.09
9822;BME280;4950;46.042;14.472;2024-01-30T08:17:50;100113.88;;;-1.44;85.14
9822;BME280;4950;46.042;14.472;2024-01-30T08:20:21;100109.47;;;-1.39;86.11
9822;BME280;4950;46.042;14.472;2024-01-30T08:22:47;100105.59;;;-1.21;85.77
9822;BME280;4950;46.042;14.472;2024-01-30T08:25:14;100110.91;;;-1.01;85.32
9822;BME280;4950;46.042;14.472;2024-01-30T08:27:42;100102.63;;;-0.79;84.71
9822;BME280;4950;46.042;14.472;2024-01-30T08:30:10;100107.72;;;-0.79;82.56
9822;BME280;4950;46.042;14.472;2024-01-30T08:32:37;100115.34;;;-0.77;83.92
9822;BME280;4950;46.042;14.472;2024-01-30T08:35:04;100108.78;;;-0.58;82.59
9822;BME280;4950;46.042;14.472;2024-01-30T08:37:31;100105.41;;;-0.58;82.21
9822;BME280;4950;46.042;14.472;2024-01-30T08:39:58;100099.91;;;-0.46;81.83
9822;BME280;4950;46.042;14.472;2024-01-30T08:42:25;100100.41;;;-0.35;80.03
9822;BME280;4950;46.042;14.472;2024-01-30T08:44:53;100094.16;;;-0.26;80.68
9822;BME280;4950;46.042;14.472;2024-01-30T08:47:21;100084.72;;;-0.24;80.17
9822;BME280;4950;46.042;14.472;2024-01-30T08:49:48;100094.34;;;-0.06;80.89
9822;BME280;4950;46.042;14.472;2024-01-30T08:52:14;100091.94;;;0.15;79.26
9822;BME280;4950;46.042;14.472;2024-01-30T08:54:41;100090.16;;;0.17;77.78
9822;BME280;4950;46.042;14.472;2024-01-30T08:57:08;100089.84;;;0.26;79.20
9822;BME280;4950;46.042;14.472;2024-01-30T08:59:35;100086.56;;;0.23;79.14
9822;BME280;4950;46.042;14.472;2024-01-30T09:02:03;100084.34;;;0.37;79.19
9822;BME280;4950;46.042;14.472;2024-01-30T09:04:30;100076.41;;;0.45;79.65
9822;BME280;4950;46.042;14.472;2024-01-30T09:06:57;100084.06;;;0.45;79.18
9822;BME280;4950;46.042;14.472;2024-01-30T09:09:24;100082.13;;;0.75;78.57
9822;BME280;4950;46.042;14.472;2024-01-30T09:11:50;100079.81;;;0.91;78.35
9822;BME280;4950;46.042;14.472;2024-01-30T09:14:17;100081.91;;;1.03;78.33
9822;BME280;4950;46.042;14.472;2024-01-30T09:16:44;100075.97;;;1.25;78.24
9822;BME280;4950;46.042;14.472;2024-01-30T09:19:12;100074.13;;;1.06;76.52
9822;BME280;4950;46.042;14.472;2024-01-30T09:21:39;100073.84;;;1.14;77.12
9822;BME280;4950;46.042;14.472;2024-01-30T09:24:06;100067.41;;;1.26;76.71
9822;BME280;4950;46.042;14.472;2024-01-30T09:26:34;100072.22;;;1.33;76.25
9822;BME280;4950;46.042;14.472;2024-01-30T09:29:01;100070.44;;;1.56;76.27
9822;BME280;4950;46.042;14.472;2024-01-30T09:31:28;100069.84;;;1.92;76.02
9822;BME280;4950;46.042;14.472;2024-01-30T09:33:54;100065.44;;;1.95;75.21
9822;BME280;4950;46.042;14.472;2024-01-30T09:36:23;100059.38;;;2.17;73.87
9822;BME280;4950;46.042;14.472;2024-01-30T09:38:49;100063.22;;;2.27;73.58
9822;BME280;4950;46.042;14.472;2024-01-30T09:41:19;100061.28;;;2.32;73.70
9822;BME280;4950;46.042;14.472;2024-01-30T09:43:47;100062.66;;;2.40;74.23
9822;BME280;4950;46.042;14.472;2024-01-30T09:46:16;100058.09;;;2.27;73.90
9822;BME280;4950;46.042;14.472;2024-01-30T09:48:45;100059.00;;;2.45;73.94
9822;BME280;4950;46.042;14.472;2024-01-30T09:51:14;100050.56;;;2.62;73.22
9822;BME280;4950;46.042;14.472;2024-01-30T09:53:43;100048.81;;;2.82;72.69
9822;BME280;4950;46.042;14.472;2024-01-30T09:56:10;100054.88;;;2.98;72.18
9822;BME280;4950;46.042;14.472;2024-01-30T09:58:38;100043.47;;;3.23;72.40
9822;BME280;4950;46.042;14.472;2024-01-30T10:01:06;100038.38;;;3.40;71.14
9822;BME280;4950;46.042;14.472;2024-01-30T10:03:33;100037.69;;;3.54;70.34
9822;BME280;4950;46.042;14.472;2024-01-30T10:06:00;100034.56;;;3.65;70.12
9822;BME280;4950;46.042;14.472;2024-01-30T10:08:27;100033.22;;;3.75;69.75
9822;BME280;4950;46.042;14.472;2024-01-30T10:10:56;100035.31;;;3.84;69.70
9822;BME280;4950;46.042;14.472;2024-01-30T10:13:23;100030.22;;;4.00;68.96
9822;BME280;4950;46.042;14.472;2024-01-30T10:15:50;100029.75;;;4.09;68.04
9822;BME280;4950;46.042;14.472;2024-01-30T10:18:17;100029.00;;;4.07;68.47
9822;BME280;4950;46.042;14.472;2024-01-30T10:20:45;100021.66;;;4.33;67.61
9822;BME280;4950;46.042;14.472;2024-01-30T10:23:12;100017.78;;;4.42;67.50
9822;BME280;4950;46.042;14.472;2024-01-30T10:25:39;100013.41;;;4.60;67.50
9822;BME280;4950;46.042;14.472;2024-01-30T10:28:08;100008.06;;;4.63;67.10
9822;BME280;4950;46.042;14.472;2024-01-30T10:30:35;100016.13;;;4.72;67.17
9822;BME280;4950;46.042;14.472;2024-01-30T10:33:02;100007.34;;;4.92;66.01
9822;BME280;4950;46.042;14.472;2024-01-30T10:35:29;100002.66;;;4.99;65.19
9822;BME280;4950;46.042;14.472;2024-01-30T10:37:57;99997.25;;;5.04;66.05
9822;BME280;4950;46.042;14.472;2024-01-30T10:40:28;99993.53;;;4.93;65.78
9822;BME280;4950;46.042;14.472;2024-01-30T10:42:55;99986.47;;;4.97;66.71
9822;BME280;4950;46.042;14.472;2024-01-30T10:45:26;99984.78;;;5.12;66.51
9822;BME280;4950;46.042;14.472;2024-01-30T10:47:55;99985.56;;;5.28;65.85
9822;BME280;4950;46.042;14.472;2024-01-30T10:50:24;99979.00;;;5.53;64.83
9822;BME280;4950;46.042;14.472;2024-01-30T10:52:52;99970.94;;;5.73;64.17
9822;BME280;4950;46.042;14.472;2024-01-30T10:55:21;99968.66;;;6.12;63.34
9822;BME280;4950;46.042;14.472;2024-01-30T10:57:48;99956.13;;;6.20;62.02
9822;BME280;4950;46.042;14.472;2024-01-30T11:00:16;99958.19;;;6.42;61.24
9822;BME280;4950;46.042;14.472;2024-01-30T11:02:49;99952.28;;;6.55;60.95
9822;BME280;4950;46.042;14.472;2024-01-30T11:05:23;99947.16;;;6.67;61.42
9822;BME280;4950;46.042;14.472;2024-01-30T11:07:50;99937.47;;;6.71;60.81
9822;BME280;4950;46.042;14.472;2024-01-30T11:10:17;99934.03;;;6.98;61.67
9822;BME280;4950;46.042;14.472;2024-01-30T11:12:46;99926.84;;;7.16;59.56
9822;BME280;4950;46.042;14.472;2024-01-30T11:15:14;99927.97;;;7.24;59.15
9822;BME280;4950;46.042;14.472;2024-01-30T11:17:44;99920.44;;;7.34;59.06
9822;BME280;4950;46.042;14.472;2024-01-30T11:20:14;99916.31;;;7.57;58.54
9822;BME280;4950;46.042;14.472;2024-01-30T11:22:42;99908.13;;;7.76;57.65
9822;BME280;4950;46.042;14.472;2024-01-30T11:25:14;99909.44;;;7.95;56.66
9822;BME280;4950;46.042;14.472;2024-01-30T11:27:41;99901.03;;;8.04;54.89
9822;BME280;4950;46.042;14.472;2024-01-30T11:30:09;99899.88;;;8.21;53.86
9822;BME280;4950;46.042;14.472;2024-01-30T11:32:36;99890.38;;;8.45;52.64
9822;BME280;4950;46.042;14.472;2024-01-30T11:35:03;99888.69;;;8.68;52.23
9822;BME280;4950;46.042;14.472;2024-01-30T11:37:36;99881.78;;;8.80;51.70
9822;BME280;4950;46.042;14.472;2024-01-30T11:40:04;99876.44;;;8.95;50.73
9822;BME280;4950;46.042;14.472;2024-01-30T11:42:31;99876.84;;;9.13;50.34
9822;BME280;4950;46.042;14.472;2024-01-30T11:45:00;99878.25;;;9.39;50.78
9822;BME280;4950;46.042;14.472;2024-01-30T11:47:27;99872.06;;;9.53;49.33
9822;BME280;4950;46.042;14.472;2024-01-30T11:49:54;99868.63;;;9.75;48.67
9822;BME280;4950;46.042;14.472;2024-01-30T11:52:21;99863.16;;;9.89;48.40
9822;BME280;4950;46.042;14.472;2024-01-30T11:54:50;99869.69;;;9.73;48.34
9822;BME280;4950;46.042;14.472;2024-01-30T11:57:17;99864.03;;;9.67;48.19
9822;BME280;4950;46.042;14.472;2024-01-30T11:59:43;99859.16;;;9.74;48.65
9822;BME280;4950;46.042;14.472;2024-01-30T12:02:15;99846.88;;;9.99;48.78
9822;BME280;4950;46.042;14.472;2024-01-30T12:04:42;99838.69;;;10.15;47.71
9822;BME280;4950;46.042;14.472;2024-01-30T12:07:09;99832.84;;;10.45;47.04
9822;BME280;4950;46.042;14.472;2024-01-30T12:09:35;99837.13;;;10.67;46.55
9822;BME280;4950;46.042;14.472;2024-01-30T12:12:07;99830.84;;;10.91;46.17
9822;BME280;4950;46.042;14.472;2024-01-30T12:14:37;99823.91;;;11.01;45.83
9822;BME280;4950;46.042;14.472;2024-01-30T12:17:04;99813.56;;;11.41;45.15
9822;BME280;4950;46.042;14.472;2024-01-30T12:19:33;99811.94;;;11.50;45.29
9822;BME280;4950;46.042;14.472;2024-01-30T12:21:59;99804.31;;;11.49;44.15
9822;BME280;4950;46.042;14.472;2024-01-30T12:24:27;99799.97;;;11.28;44.80
9822;BME280;4950;46.042;14.472;2024-01-30T12:26:57;99793.59;;;11.42;45.07
9822;BME280;4950;46.042;14.472;2024-01-30T12:29:25;99789.09;;;11.54;44.34
9822;BME280;4950;46.042;14.472;2024-01-30T12:31:53;99782.19;;;11.64;44.28
9822;BME280;4950;46.042;14.472;2024-01-30T12:34:21;99787.53;;;11.82;44.31
9822;BME280;4950;46.042;14.472;2024-01-30T12:36:48;99785.69;;;12.33;43.60
9822;BME280;4950;46.042;14.472;2024-01-30T12:39:15;99783.63;;;12.07;43.04
9822;BME280;4950;46.042;14.472;2024-01-30T12:41:42;99785.69;;;12.13;43.08
9822;BME280;4950;46.042;14.472;2024-01-30T12:44:09;99777.56;;;12.36;43.04
9822;BME280;4950;46.042;14.472;2024-01-30T12:46:37;99775.63;;;12.57;42.54
9822;BME280;4950;46.042;14.472;2024-01-30T12:49:04;99779.75;;;12.60;42.72
9822;BME280;4950;46.042;14.472;2024-01-30T12:51:34;99777.84;;;12.52;41.93
9822;BME280;4950;46.042;14.472;2024-01-30T12:54:05;99773.03;;;12.48;41.98
9822;BME280;4950;46.042;14.472;2024-01-30T12:56:31;99771.28;;;12.48;41.95
9822;BME280;4950;46.042;14.472;2024-01-30T12:58:58;99773.44;;;12.62;42.18
9822;BME280;4950;46.042;14.472;2024-01-30T13:01:25;99765.72;;;12.80;41.48
9822;BME280;4950;46.042;14.472;2024-01-30T13:03:53;99767.53;;;12.70;41.48
9822;BME280;4950;46.042;14.472;2024-01-30T13:06:22;99763.28;;;12.59;41.76